Tatarsk, Russia
Current Conditions -  °F | °C
As of 5:00 AM on Saturday 01 Nov 2014 (Local Time) from UNOO Reporting Station
Haze Haze  
Wind Chill: 24°   Ceiling: Unl
Heat Index: 32°   Visibility: 2.8mi
Dew Point: 30°   Wind: 9mph
Humidity: 93%   Direction: 210°SSW
Pressure: 30.06"   Gusts: NA
Location:  55.22°N, 75.97°E
Report Text: UNOO 312200Z 21004MPS 4500 BR SCT200 M00/M01 Q1018 25220055NOSIG RMK QFE755
Loading
Personal Weather Stations






























Interactive Weather Map
Tropical Storm Tracking
New forecast layout! Learn more

10-Day Weather Forecast

Advertisements
Track Severe Weather on mobile